sensor_id;sensor_type;location;lat;lon;timestamp;temperature;humidity
21085;DHT22;34247;50.064;19.970;2022-12-18T00:00:42;16.90;23.50
21085;DHT22;34247;50.064;19.970;2022-12-18T00:01:50;17.00;23.60
21085;DHT22;34247;50.064;19.970;2022-12-18T00:02:57;17.00;23.60
21085;DHT22;34247;50.064;19.970;2022-12-18T00:04:02;17.00;23.50
21085;DHT22;34247;50.064;19.970;2022-12-18T00:05:16;17.00;23.50
21085;DHT22;34247;50.064;19.970;2022-12-18T00:06:20;17.00;23.50
21085;DHT22;34247;50.064;19.970;2022-12-18T00:07:25;16.90;23.50
21085;DHT22;34247;50.064;19.970;2022-12-18T00:08:28;16.90;23.50
21085;DHT22;34247;50.064;19.970;2022-12-18T00:09:32;16.90;23.60
21085;DHT22;34247;50.064;19.970;2022-12-18T00:10:43;16.90;23.60
21085;DHT22;34247;50.064;19.970;2022-12-18T00:11:46;16.80;23.70
21085;DHT22;34247;50.064;19.970;2022-12-18T00:12:50;17.00;23.60
21085;DHT22;34247;50.064;19.970;2022-12-18T00:13:56;16.90;23.50
21085;DHT22;34247;50.064;19.970;2022-12-18T00:15:01;16.90;23.60
21085;DHT22;34247;50.064;19.970;2022-12-18T00:16:12;16.90;23.60
21085;DHT22;34247;50.064;19.970;2022-12-18T00:17:17;16.90;23.60
21085;DHT22;34247;50.064;19.970;2022-12-18T00:18:21;16.90;23.50
21085;DHT22;34247;50.064;19.970;2022-12-18T00:19:25;16.90;23.60
21085;DHT22;34247;50.064;19.970;2022-12-18T00:20:30;17.00;23.70
21085;DHT22;34247;50.064;19.970;2022-12-18T00:21:34;16.90;23.60
21085;DHT22;34247;50.064;19.970;2022-12-18T00:22:38;17.00;23.60
21085;DHT22;34247;50.064;19.970;2022-12-18T00:23:45;16.90;23.50
21085;DHT22;34247;50.064;19.970;2022-12-18T00:24:49;16.90;23.60
21085;DHT22;34247;50.064;19.970;2022-12-18T00:25:53;16.90;23.60
21085;DHT22;34247;50.064;19.970;2022-12-18T00:26:57;17.00;23.50
21085;DHT22;34247;50.064;19.970;2022-12-18T00:28:01;17.00;23.50
21085;DHT22;34247;50.064;19.970;2022-12-18T00:29:10;17.00;23.50
21085;DHT22;34247;50.064;19.970;2022-12-18T00:30:17;17.10;23.40
21085;DHT22;34247;50.064;19.970;2022-12-18T00:31:23;17.10;23.40
21085;DHT22;34247;50.064;19.970;2022-12-18T00:32:38;17.00;23.50
21085;DHT22;34247;50.064;19.970;2022-12-18T00:33:42;16.90;23.50
21085;DHT22;34247;50.064;19.970;2022-12-18T00:34:46;16.90;23.50
21085;DHT22;34247;50.064;19.970;2022-12-18T00:35:49;16.90;23.50
21085;DHT22;34247;50.064;19.970;2022-12-18T00:36:53;16.90;23.50
21085;DHT22;34247;50.064;19.970;2022-12-18T00:37:57;17.00;23.60
21085;DHT22;34247;50.064;19.970;2022-12-18T00:39:04;17.00;23.40
21085;DHT22;34247;50.064;19.970;2022-12-18T00:40:13;17.00;23.40
21085;DHT22;34247;50.064;19.970;2022-12-18T00:41:17;17.00;23.40
21085;DHT22;34247;50.064;19.970;2022-12-18T00:42:42;16.90;23.40
21085;DHT22;34247;50.064;19.970;2022-12-18T00:44:01;16.90;23.40
21085;DHT22;34247;50.064;19.970;2022-12-18T00:45:08;16.90;23.50
21085;DHT22;34247;50.064;19.970;2022-12-18T00:46:15;17.00;23.50
21085;DHT22;34247;50.064;19.970;2022-12-18T00:47:19;16.90;23.50
21085;DHT22;34247;50.064;19.970;2022-12-18T00:48:22;16.90;23.60
21085;DHT22;34247;50.064;19.970;2022-12-18T00:49:26;16.90;23.50
21085;DHT22;34247;50.064;19.970;2022-12-18T00:50:30;16.80;23.50
21085;DHT22;34247;50.064;19.970;2022-12-18T00:51:34;16.90;23.60
21085;DHT22;34247;50.064;19.970;2022-12-18T00:52:37;16.90;23.60
21085;DHT22;34247;50.064;19.970;2022-12-18T00:53:44;16.90;23.50
21085;DHT22;34247;50.064;19.970;2022-12-18T00:54:48;16.90;23.60
21085;DHT22;34247;50.064;19.970;2022-12-18T00:55:52;16.90;23.60
21085;DHT22;34247;50.064;19.970;2022-12-18T00:56:57;16.90;23.60
21085;DHT22;34247;50.064;19.970;2022-12-18T00:58:00;16.90;23.50
21085;DHT22;34247;50.064;19.970;2022-12-18T00:59:05;16.90;23.50
21085;DHT22;34247;50.064;19.970;2022-12-18T01:00:15;17.00;23.40
21085;DHT22;34247;50.064;19.970;2022-12-18T01:01:19;17.00;23.50
21085;DHT22;34247;50.064;19.970;2022-12-18T01:02:32;17.00;23.40
21085;DHT22;34247;50.064;19.970;2022-12-18T01:03:36;17.10;23.30
21085;DHT22;34247;50.064;19.970;2022-12-18T01:04:40;17.00;23.20
21085;DHT22;34247;50.064;19.970;2022-12-18T01:05:44;17.00;23.20
21085;DHT22;34247;50.064;19.970;2022-12-18T01:06:48;17.10;23.20
21085;DHT22;34247;50.064;19.970;2022-12-18T01:07:52;17.10;23.00
21085;DHT22;34247;50.064;19.970;2022-12-18T01:08:57;17.10;23.10
21085;DHT22;34247;50.064;19.970;2022-12-18T01:10:05;17.00;23.10
21085;DHT22;34247;50.064;19.970;2022-12-18T01:11:18;17.00;23.20
21085;DHT22;34247;50.064;19.970;2022-12-18T01:12:23;17.00;23.30
21085;DHT22;34247;50.064;19.970;2022-12-18T01:13:27;17.00;23.30
21085;DHT22;34247;50.064;19.970;2022-12-18T01:14:31;16.90;23.30
21085;DHT22;34247;50.064;19.970;2022-12-18T01:15:34;17.00;23.30
21085;DHT22;34247;50.064;19.970;2022-12-18T01:16:38;17.10;23.10
21085;DHT22;34247;50.064;19.970;2022-12-18T01:17:42;17.20;23.10
21085;DHT22;34247;50.064;19.970;2022-12-18T01:18:50;17.20;23.10
21085;DHT22;34247;50.064;19.970;2022-12-18T01:19:55;17.20;23.00
21085;DHT22;34247;50.064;19.970;2022-12-18T01:21:05;17.20;23.00
21085;DHT22;34247;50.064;19.970;2022-12-18T01:22:12;17.10;23.00
21085;DHT22;34247;50.064;19.970;2022-12-18T01:23:19;17.10;23.10
21085;DHT22;34247;50.064;19.970;2022-12-18T01:24:30;17.10;23.10
21085;DHT22;34247;50.064;19.970;2022-12-18T01:25:36;17.10;23.10
21085;DHT22;34247;50.064;19.970;2022-12-18T01:26:39;17.00;23.20
21085;DHT22;34247;50.064;19.970;2022-12-18T01:27:43;17.00;23.80
21085;DHT22;34247;50.064;19.970;2022-12-18T01:28:47;17.00;23.30
21085;DHT22;34247;50.064;19.970;2022-12-18T01:29:51;17.00;23.30
21085;DHT22;34247;50.064;19.970;2022-12-18T01:30:55;17.10;23.20
21085;DHT22;34247;50.064;19.970;2022-12-18T01:31:59;17.00;23.30
21085;DHT22;34247;50.064;19.970;2022-12-18T01:33:04;17.00;23.30
21085;DHT22;34247;50.064;19.970;2022-12-18T01:34:13;17.00;23.30
21085;DHT22;34247;50.064;19.970;2022-12-18T01:35:20;16.90;23.30
21085;DHT22;34247;50.064;19.970;2022-12-18T01:36:29;17.00;23.40
21085;DHT22;34247;50.064;19.970;2022-12-18T01:37:35;17.10;23.50
21085;DHT22;34247;50.064;19.970;2022-12-18T01:38:38;17.10;23.20
21085;DHT22;34247;50.064;19.970;2022-12-18T01:39:42;17.00;23.20
21085;DHT22;34247;50.064;19.970;2022-12-18T01:40:46;17.00;23.20
21085;DHT22;34247;50.064;19.970;2022-12-18T01:41:52;17.10;23.10
21085;DHT22;34247;50.064;19.970;2022-12-18T01:43:05;17.10;23.10
21085;DHT22;34247;50.064;19.970;2022-12-18T01:45:53;17.10;23.20
21085;DHT22;34247;50.064;19.970;2022-12-18T01:46:57;17.00;23.20
21085;DHT22;34247;50.064;19.970;2022-12-18T01:48:05;17.00;23.20
21085;DHT22;34247;50.064;19.970;2022-12-18T01:49:13;17.00;23.30
21085;DHT22;34247;50.064;19.970;2022-12-18T01:50:18;17.00;23.30
21085;DHT22;34247;50.064;19.970;2022-12-18T01:51:27;17.00;23.30
21085;DHT22;34247;50.064;19.970;2022-12-18T01:52:34;17.00;23.20
21085;DHT22;34247;50.064;19.970;2022-12-18T01:53:40;17.10;23.10
21085;DHT22;34247;50.064;19.970;2022-12-18T01:54:49;17.10;23.10
21085;DHT22;34247;50.064;19.970;2022-12-18T01:55:57;17.10;23.10
21085;DHT22;34247;50.064;19.970;2022-12-18T01:57:02;17.00;23.10
21085;DHT22;34247;50.064;19.970;2022-12-18T01:58:10;17.00;23.20
21085;DHT22;34247;50.064;19.970;2022-12-18T01:59:14;16.90;23.30
21085;DHT22;34247;50.064;19.970;2022-12-18T02:00:21;16.90;23.20
21085;DHT22;34247;50.064;19.970;2022-12-18T02:01:32;16.90;23.30
21085;DHT22;34247;50.064;19.970;2022-12-18T02:02:36;16.90;23.40
21085;DHT22;34247;50.064;19.970;2022-12-18T02:03:42;16.90;23.40
21085;DHT22;34247;50.064;19.970;2022-12-18T02:04:47;16.90;23.50
21085;DHT22;34247;50.064;19.970;2022-12-18T02:06:03;16.90;23.50
21085;DHT22;34247;50.064;19.970;2022-12-18T02:10:29;16.90;23.30
21085;DHT22;34247;50.064;19.970;2022-12-18T02:18:33;17.00;23.20
21085;DHT22;34247;50.064;19.970;2022-12-18T02:20:08;17.00;23.20
21085;DHT22;34247;50.064;19.970;2022-12-18T02:21:45;17.00;23.20
21085;DHT22;34247;50.064;19.970;2022-12-18T02:25:00;17.10;22.90
21085;DHT22;34247;50.064;19.970;2022-12-18T02:27:42;17.10;22.80
21085;DHT22;34247;50.064;19.970;2022-12-18T02:29:16;17.10;22.90
21085;DHT22;34247;50.064;19.970;2022-12-18T02:30:26;17.00;23.10
21085;DHT22;34247;50.064;19.970;2022-12-18T02:31:40;17.00;23.10
21085;DHT22;34247;50.064;19.970;2022-12-18T02:32:52;17.00;23.10
21085;DHT22;34247;50.064;19.970;2022-12-18T02:34:00;17.00;23.10
21085;DHT22;34247;50.064;19.970;2022-12-18T02:35:23;17.00;23.10
21085;DHT22;34247;50.064;19.970;2022-12-18T02:36:30;16.90;23.10
21085;DHT22;34247;50.064;19.970;2022-12-18T02:37:36;16.90;23.20
21085;DHT22;34247;50.064;19.970;2022-12-18T02:38:46;16.90;23.30
21085;DHT22;34247;50.064;19.970;2022-12-18T02:39:51;16.90;23.30
21085;DHT22;34247;50.064;19.970;2022-12-18T02:40:59;16.90;23.20
21085;DHT22;34247;50.064;19.970;2022-12-18T02:42:04;17.00;23.10
21085;DHT22;34247;50.064;19.970;2022-12-18T02:43:14;17.00;23.10
21085;DHT22;34247;50.064;19.970;2022-12-18T02:44:18;17.00;23.20
21085;DHT22;34247;50.064;19.970;2022-12-18T02:45:23;17.00;23.20
21085;DHT22;34247;50.064;19.970;2022-12-18T02:46:36;17.00;23.30
21085;DHT22;34247;50.064;19.970;2022-12-18T02:47:46;17.00;23.20
21085;DHT22;34247;50.064;19.970;2022-12-18T02:48:57;16.90;23.30
21085;DHT22;34247;50.064;19.970;2022-12-18T02:50:18;17.00;23.30
21085;DHT22;34247;50.064;19.970;2022-12-18T02:51:39;16.90;23.40
21085;DHT22;34247;50.064;19.970;2022-12-18T02:53:18;17.00;23.40
21085;DHT22;34247;50.064;19.970;2022-12-18T02:54:57;17.00;23.40
21085;DHT22;34247;50.064;19.970;2022-12-18T02:56:28;16.90;23.40
21085;DHT22;34247;50.064;19.970;2022-12-18T02:57:55;16.90;23.40
21085;DHT22;34247;50.064;19.970;2022-12-18T02:59:18;17.00;23.40
21085;DHT22;34247;50.064;19.970;2022-12-18T03:03:46;16.90;23.60
21085;DHT22;34247;50.064;19.970;2022-12-18T03:06:41;17.00;23.50
21085;DHT22;34247;50.064;19.970;2022-12-18T03:08:00;17.00;23.40
21085;DHT22;34247;50.064;19.970;2022-12-18T03:09:14;17.00;23.40
21085;DHT22;34247;50.064;19.970;2022-12-18T03:10:28;17.10;23.50
21085;DHT22;34247;50.064;19.970;2022-12-18T03:11:38;17.10;23.30
21085;DHT22;34247;50.064;19.970;2022-12-18T03:13:15;17.10;23.40
21085;DHT22;34247;50.064;19.970;2022-12-18T03:14:30;17.10;23.30
21085;DHT22;34247;50.064;19.970;2022-12-18T03:15:39;17.10;23.20
21085;DHT22;34247;50.064;19.970;2022-12-18T03:16:53;17.10;23.20
21085;DHT22;34247;50.064;19.970;2022-12-18T03:18:08;17.10;23.30
21085;DHT22;34247;50.064;19.970;2022-12-18T03:19:28;17.10;23.30
21085;DHT22;34247;50.064;19.970;2022-12-18T03:20:35;17.10;23.30
21085;DHT22;34247;50.064;19.970;2022-12-18T03:21:49;17.10;23.20
21085;DHT22;34247;50.064;19.970;2022-12-18T03:23:02;17.10;23.00
21085;DHT22;34247;50.064;19.970;2022-12-18T03:24:15;17.10;23.30
21085;DHT22;34247;50.064;19.970;2022-12-18T03:25:21;17.10;23.20
21085;DHT22;34247;50.064;19.970;2022-12-18T03:26:27;17.10;23.30
21085;DHT22;34247;50.064;19.970;2022-12-18T03:27:35;17.10;23.30
21085;DHT22;34247;50.064;19.970;2022-12-18T03:28:47;17.10;23.30
21085;DHT22;34247;50.064;19.970;2022-12-18T03:30:10;17.10;23.40
21085;DHT22;34247;50.064;19.970;2022-12-18T03:31:16;17.00;23.30
21085;DHT22;34247;50.064;19.970;2022-12-18T03:32:31;17.00;23.90
21085;DHT22;34247;50.064;19.970;2022-12-18T03:33:50;17.10;23.20
21085;DHT22;34247;50.064;19.970;2022-12-18T03:35:02;17.10;23.20
21085;DHT22;34247;50.064;19.970;2022-12-18T03:36:12;17.10;23.20
21085;DHT22;34247;50.064;19.970;2022-12-18T03:37:16;17.10;23.20
21085;DHT22;34247;50.064;19.970;2022-12-18T03:38:20;17.00;23.30
21085;DHT22;34247;50.064;19.970;2022-12-18T03:39:24;17.10;23.30
21085;DHT22;34247;50.064;19.970;2022-12-18T03:41:52;17.00;23.20
21085;DHT22;34247;50.064;19.970;2022-12-18T03:43:18;17.00;23.20
21085;DHT22;34247;50.064;19.970;2022-12-18T03:45:54;16.90;23.30
21085;DHT22;34247;50.064;19.970;2022-12-18T03:47:42;17.00;23.40
21085;DHT22;34247;50.064;19.970;2022-12-18T03:49:08;17.00;23.30
21085;DHT22;34247;50.064;19.970;2022-12-18T03:55:00;17.10;23.00
21085;DHT22;34247;50.064;19.970;2022-12-18T03:56:11;17.00;23.10
21085;DHT22;34247;50.064;19.970;2022-12-18T03:57:21;16.90;23.10
21085;DHT22;34247;50.064;19.970;2022-12-18T03:58:29;16.90;23.30
21085;DHT22;34247;50.064;19.970;2022-12-18T03:59:37;16.80;23.40
21085;DHT22;34247;50.064;19.970;2022-12-18T04:00:42;16.80;23.40
21085;DHT22;34247;50.064;19.970;2022-12-18T04:01:49;16.70;23.40
21085;DHT22;34247;50.064;19.970;2022-12-18T04:02:57;16.80;23.40
21085;DHT22;34247;50.064;19.970;2022-12-18T04:04:06;16.90;23.40
21085;DHT22;34247;50.064;19.970;2022-12-18T04:05:14;16.90;23.40
21085;DHT22;34247;50.064;19.970;2022-12-18T04:06:19;16.90;23.30
21085;DHT22;34247;50.064;19.970;2022-12-18T04:07:24;16.80;23.30
21085;DHT22;34247;50.064;19.970;2022-12-18T04:08:29;16.80;23.40
21085;DHT22;34247;50.064;19.970;2022-12-18T04:09:34;16.80;23.40
21085;DHT22;34247;50.064;19.970;2022-12-18T04:10:42;16.80;23.50
21085;DHT22;34247;50.064;19.970;2022-12-18T04:11:46;16.80;23.50
21085;DHT22;34247;50.064;19.970;2022-12-18T04:12:51;16.70;23.50
21085;DHT22;34247;50.064;19.970;2022-12-18T04:13:59;16.80;23.50
21085;DHT22;34247;50.064;19.970;2022-12-18T04:15:15;16.70;23.50
21085;DHT22;34247;50.064;19.970;2022-12-18T04:16:18;16.70;23.50
21085;DHT22;34247;50.064;19.970;2022-12-18T04:17:22;16.80;23.50
21085;DHT22;34247;50.064;19.970;2022-12-18T04:18:26;16.70;23.50
21085;DHT22;34247;50.064;19.970;2022-12-18T04:19:30;16.70;23.50
21085;DHT22;34247;50.064;19.970;2022-12-18T04:20:34;16.80;23.60
21085;DHT22;34247;50.064;19.970;2022-12-18T04:21:37;16.80;23.50
21085;DHT22;34247;50.064;19.970;2022-12-18T04:22:41;16.90;23.50
21085;DHT22;34247;50.064;19.970;2022-12-18T04:23:45;17.00;23.40
21085;DHT22;34247;50.064;19.970;2022-12-18T04:24:49;16.90;23.30
21085;DHT22;34247;50.064;19.970;2022-12-18T04:25:53;16.90;23.30
21085;DHT22;34247;50.064;19.970;2022-12-18T04:26:57;16.90;23.30
21085;DHT22;34247;50.064;19.970;2022-12-18T04:28:01;16.90;23.40
21085;DHT22;34247;50.064;19.970;2022-12-18T04:29:04;16.90;23.30
21085;DHT22;34247;50.064;19.970;2022-12-18T04:30:16;16.90;23.30
21085;DHT22;34247;50.064;19.970;2022-12-18T04:31:20;16.90;23.40
21085;DHT22;34247;50.064;19.970;2022-12-18T04:32:25;16.90;23.30
21085;DHT22;34247;50.064;19.970;2022-12-18T04:33:28;17.10;23.20
21085;DHT22;34247;50.064;19.970;2022-12-18T04:34:32;17.00;23.10
21085;DHT22;34247;50.064;19.970;2022-12-18T04:35:38;16.90;23.70
21085;DHT22;34247;50.064;19.970;2022-12-18T04:36:43;16.90;23.20
21085;DHT22;34247;50.064;19.970;2022-12-18T04:37:46;16.80;23.30
21085;DHT22;34247;50.064;19.970;2022-12-18T04:38:50;16.80;23.30
21085;DHT22;34247;50.064;19.970;2022-12-18T04:39:54;16.70;23.40
21085;DHT22;34247;50.064;19.970;2022-12-18T04:40:58;16.80;23.40
21085;DHT22;34247;50.064;19.970;2022-12-18T04:42:02;16.80;23.30
21085;DHT22;34247;50.064;19.970;2022-12-18T04:43:10;16.80;23.40
21085;DHT22;34247;50.064;19.970;2022-12-18T04:44:15;16.70;23.40
21085;DHT22;34247;50.064;19.970;2022-12-18T04:45:19;16.70;23.50
21085;DHT22;34247;50.064;19.970;2022-12-18T04:46:23;16.70;23.60
21085;DHT22;34247;50.064;19.970;2022-12-18T04:47:27;16.60;23.60
21085;DHT22;34247;50.064;19.970;2022-12-18T04:48:31;16.70;23.60
21085;DHT22;34247;50.064;19.970;2022-12-18T04:49:35;16.70;23.60
21085;DHT22;34247;50.064;19.970;2022-12-18T04:50:39;16.60;23.60
21085;DHT22;34247;50.064;19.970;2022-12-18T04:51:42;16.60;23.60
21085;DHT22;34247;50.064;19.970;2022-12-18T04:52:46;16.60;23.60
21085;DHT22;34247;50.064;19.970;2022-12-18T04:53:50;16.60;23.70
21085;DHT22;34247;50.064;19.970;2022-12-18T04:54:53;16.70;23.70
21085;DHT22;34247;50.064;19.970;2022-12-18T04:56:26;16.70;23.50
21085;DHT22;34247;50.064;19.970;2022-12-18T04:57:30;16.70;23.50
21085;DHT22;34247;50.064;19.970;2022-12-18T04:58:33;16.70;23.50
21085;DHT22;34247;50.064;19.970;2022-12-18T04:59:37;16.80;23.40
21085;DHT22;34247;50.064;19.970;2022-12-18T05:00:41;16.80;23.40
21085;DHT22;34247;50.064;19.970;2022-12-18T05:01:45;16.80;23.30
21085;DHT22;34247;50.064;19.970;2022-12-18T05:02:49;16.80;23.40
21085;DHT22;34247;50.064;19.970;2022-12-18T05:03:53;16.70;23.30
21085;DHT22;34247;50.064;19.970;2022-12-18T05:04:57;16.70;23.40
21085;DHT22;34247;50.064;19.970;2022-12-18T05:06:02;16.70;23.40
21085;DHT22;34247;50.064;19.970;2022-12-18T05:07:09;16.80;23.40
21085;DHT22;34247;50.064;19.970;2022-12-18T05:08:14;16.80;23.40
21085;DHT22;34247;50.064;19.970;2022-12-18T05:09:18;16.70;23.40
21085;DHT22;34247;50.064;19.970;2022-12-18T05:10:22;16.70;23.50
21085;DHT22;34247;50.064;19.970;2022-12-18T05:11:26;16.60;23.40
21085;DHT22;34247;50.064;19.970;2022-12-18T05:12:31;16.70;23.50
21085;DHT22;34247;50.064;19.970;2022-12-18T05:13:35;16.70;23.40
21085;DHT22;34247;50.064;19.970;2022-12-18T05:14:41;16.70;23.40
21085;DHT22;34247;50.064;19.970;2022-12-18T05:15:51;16.70;23.90
21085;DHT22;34247;50.064;19.970;2022-12-18T05:16:55;16.70;23.50
21085;DHT22;34247;50.064;19.970;2022-12-18T05:18:03;16.70;23.50
21085;DHT22;34247;50.064;19.970;2022-12-18T05:19:11;16.70;23.50
21085;DHT22;34247;50.064;19.970;2022-12-18T05:20:15;16.80;23.40
21085;DHT22;34247;50.064;19.970;2022-12-18T05:21:19;16.80;23.40
21085;DHT22;34247;50.064;19.970;2022-12-18T05:22:22;16.80;23.30
21085;DHT22;34247;50.064;19.970;2022-12-18T05:23:26;16.70;23.40
21085;DHT22;34247;50.064;19.970;2022-12-18T05:24:31;16.80;23.40
21085;DHT22;34247;50.064;19.970;2022-12-18T05:25:34;16.70;23.30
21085;DHT22;34247;50.064;19.970;2022-12-18T05:26:38;16.70;23.50
21085;DHT22;34247;50.064;19.970;2022-12-18T05:27:43;16.60;23.50
21085;DHT22;34247;50.064;19.970;2022-12-18T05:28:48;16.60;23.50
21085;DHT22;34247;50.064;19.970;2022-12-18T05:29:52;16.60;23.50
21085;DHT22;34247;50.064;19.970;2022-12-18T05:30:58;16.60;23.50
21085;DHT22;34247;50.064;19.970;2022-12-18T05:32:04;16.60;23.50
21085;DHT22;34247;50.064;19.970;2022-12-18T05:33:10;16.60;23.60
21085;DHT22;34247;50.064;19.970;2022-12-18T05:34:14;16.50;23.70
21085;DHT22;34247;50.064;19.970;2022-12-18T05:35:18;16.50;23.70
21085;DHT22;34247;50.064;19.970;2022-12-18T05:36:22;16.50;23.70
21085;DHT22;34247;50.064;19.970;2022-12-18T05:37:26;16.50;23.80
21085;DHT22;34247;50.064;19.970;2022-12-18T05:38:31;16.60;23.70
21085;DHT22;34247;50.064;19.970;2022-12-18T05:39:35;16.50;24.20
21085;DHT22;34247;50.064;19.970;2022-12-18T05:40:42;16.50;23.70
21085;DHT22;34247;50.064;19.970;2022-12-18T05:41:46;16.50;23.80
21085;DHT22;34247;50.064;19.970;2022-12-18T05:42:50;16.60;23.70
21085;DHT22;34247;50.064;19.970;2022-12-18T05:43:54;16.50;23.70
21085;DHT22;34247;50.064;19.970;2022-12-18T05:44:58;16.50;23.70
21085;DHT22;34247;50.064;19.970;2022-12-18T05:46:13;16.50;23.70
21085;DHT22;34247;50.064;19.970;2022-12-18T05:47:18;16.50;23.30
21085;DHT22;34247;50.064;19.970;2022-12-18T05:48:22;16.60;23.70
21085;DHT22;34247;50.064;19.970;2022-12-18T05:49:26;16.50;23.60
21085;DHT22;34247;50.064;19.970;2022-12-18T05:50:33;16.60;23.50
21085;DHT22;34247;50.064;19.970;2022-12-18T05:51:38;16.60;23.50
21085;DHT22;34247;50.064;19.970;2022-12-18T05:52:43;16.60;23.50
21085;DHT22;34247;50.064;19.970;2022-12-18T05:53:47;16.60;23.60
21085;DHT22;34247;50.064;19.970;2022-12-18T05:54:51;16.60;23.50
21085;DHT22;34247;50.064;19.970;2022-12-18T05:56:00;16.60;23.50
21085;DHT22;34247;50.064;19.970;2022-12-18T05:57:05;16.70;23.50
21085;DHT22;34247;50.064;19.970;2022-12-18T05:58:15;16.70;23.40
21085;DHT22;34247;50.064;19.970;2022-12-18T05:59:19;16.70;23.40
21085;DHT22;34247;50.064;19.970;2022-12-18T06:00:23;16.70;23.40
21085;DHT22;34247;50.064;19.970;2022-12-18T06:01:29;16.60;23.50
21085;DHT22;34247;50.064;19.970;2022-12-18T06:02:33;16.60;24.00
21085;DHT22;34247;50.064;19.970;2022-12-18T06:03:36;16.50;23.50
21085;DHT22;34247;50.064;19.970;2022-12-18T06:04:41;16.50;23.60
21085;DHT22;34247;50.064;19.970;2022-12-18T06:05:45;16.50;23.60
21085;DHT22;34247;50.064;19.970;2022-12-18T06:06:49;16.50;23.70
21085;DHT22;34247;50.064;19.970;2022-12-18T06:07:53;16.50;23.70
21085;DHT22;34247;50.064;19.970;2022-12-18T06:08:57;16.50;23.60
21085;DHT22;34247;50.064;19.970;2022-12-18T06:10:05;16.50;23.70
21085;DHT22;34247;50.064;19.970;2022-12-18T06:11:16;16.50;23.60
21085;DHT22;34247;50.064;19.970;2022-12-18T06:12:22;16.50;23.70
21085;DHT22;34247;50.064;19.970;2022-12-18T06:13:26;16.50;23.60
21085;DHT22;34247;50.064;19.970;2022-12-18T06:14:30;16.60;23.60
21085;DHT22;34247;50.064;19.970;2022-12-18T06:15:37;16.60;23.50
21085;DHT22;34247;50.064;19.970;2022-12-18T06:16:44;16.60;23.60
21085;DHT22;34247;50.064;19.970;2022-12-18T06:17:48;16.60;23.70
21085;DHT22;34247;50.064;19.970;2022-12-18T06:18:52;16.50;24.00
21085;DHT22;34247;50.064;19.970;2022-12-18T06:19:56;16.60;23.50
21085;DHT22;34247;50.064;19.970;2022-12-18T06:21:00;16.60;23.50
21085;DHT22;34247;50.064;19.970;2022-12-18T06:22:05;16.50;23.50
21085;DHT22;34247;50.064;19.970;2022-12-18T06:23:13;16.50;23.60
21085;DHT22;34247;50.064;19.970;2022-12-18T06:24:17;16.50;23.60
21085;DHT22;34247;50.064;19.970;2022-12-18T06:25:21;16.50;23.70
21085;DHT22;34247;50.064;19.970;2022-12-18T06:26:25;16.60;23.60
21085;DHT22;34247;50.064;19.970;2022-12-18T06:27:31;16.60;23.60
21085;DHT22;34247;50.064;19.970;2022-12-18T06:28:36;16.60;23.50
21085;DHT22;34247;50.064;19.970;2022-12-18T06:29:40;16.60;23.50
21085;DHT22;34247;50.064;19.970;2022-12-18T06:30:46;16.60;23.50
21085;DHT22;34247;50.064;19.970;2022-12-18T06:31:51;16.60;23.10
21085;DHT22;34247;50.064;19.970;2022-12-18T06:32:55;16.60;23.50
21085;DHT22;34247;50.064;19.970;2022-12-18T06:34:02;16.70;23.50
21085;DHT22;34247;50.064;19.970;2022-12-18T06:35:10;16.60;23.80
21085;DHT22;34247;50.064;19.970;2022-12-18T06:36:14;16.60;23.40
21085;DHT22;34247;50.064;19.970;2022-12-18T06:37:20;16.70;23.50
21085;DHT22;34247;50.064;19.970;2022-12-18T06:38:25;16.60;23.50
21085;DHT22;34247;50.064;19.970;2022-12-18T06:39:29;16.60;23.50
21085;DHT22;34247;50.064;19.970;2022-12-18T06:40:33;16.60;23.60
21085;DHT22;34247;50.064;19.970;2022-12-18T06:41:37;16.50;23.50
21085;DHT22;34247;50.064;19.970;2022-12-18T06:42:41;16.60;23.60
21085;DHT22;34247;50.064;19.970;2022-12-18T06:43:45;16.60;23.50
21085;DHT22;34247;50.064;19.970;2022-12-18T06:44:49;16.60;23.50
21085;DHT22;34247;50.064;19.970;2022-12-18T06:45:59;16.60;23.50
21085;DHT22;34247;50.064;19.970;2022-12-18T06:47:03;16.60;23.50
21085;DHT22;34247;50.064;19.970;2022-12-18T06:48:10;16.50;23.40
21085;DHT22;34247;50.064;19.970;2022-12-18T06:49:14;16.60;23.50
21085;DHT22;34247;50.064;19.970;2022-12-18T06:50:19;16.60;23.50
21085;DHT22;34247;50.064;19.970;2022-12-18T06:51:25;16.50;23.50
21085;DHT22;34247;50.064;19.970;2022-12-18T06:52:31;16.40;23.50
21085;DHT22;34247;50.064;19.970;2022-12-18T06:53:35;16.50;23.60
21085;DHT22;34247;50.064;19.970;2022-12-18T06:54:39;16.60;23.60
21085;DHT22;34247;50.064;19.970;2022-12-18T06:55:43;16.50;23.50
21085;DHT22;34247;50.064;19.970;2022-12-18T06:56:47;16.50;23.40
21085;DHT22;34247;50.064;19.970;2022-12-18T06:57:51;16.50;23.40
21085;DHT22;34247;50.064;19.970;2022-12-18T06:58:55;16.40;23.40
21085;DHT22;34247;50.064;19.970;2022-12-18T06:59:58;16.50;23.50
21085;DHT22;34247;50.064;19.970;2022-12-18T07:01:06;16.40;23.40
21085;DHT22;34247;50.064;19.970;2022-12-18T07:02:15;16.40;23.60
21085;DHT22;34247;50.064;19.970;2022-12-18T07:03:20;16.40;23.60
21085;DHT22;34247;50.064;19.970;2022-12-18T07:04:29;16.40;23.50
21085;DHT22;34247;50.064;19.970;2022-12-18T07:05:33;16.40;23.60
21085;DHT22;34247;50.064;19.970;2022-12-18T07:06:37;16.40;23.60
21085;DHT22;34247;50.064;19.970;2022-12-18T07:07:41;16.40;23.70
21085;DHT22;34247;50.064;19.970;2022-12-18T07:08:47;16.30;23.70
21085;DHT22;34247;50.064;19.970;2022-12-18T07:09:52;16.40;23.80
21085;DHT22;34247;50.064;19.970;2022-12-18T07:10:56;16.40;23.80
21085;DHT22;34247;50.064;19.970;2022-12-18T07:12:00;16.40;23.70
21085;DHT22;34247;50.064;19.970;2022-12-18T07:13:03;16.40;23.60
21085;DHT22;34247;50.064;19.970;2022-12-18T07:14:09;16.40;23.70
21085;DHT22;34247;50.064;19.970;2022-12-18T07:15:13;16.40;23.60
21085;DHT22;34247;50.064;19.970;2022-12-18T07:16:19;16.40;23.60
21085;DHT22;34247;50.064;19.970;2022-12-18T07:17:27;16.40;23.60
21085;DHT22;34247;50.064;19.970;2022-12-18T07:18:32;16.40;23.70
21085;DHT22;34247;50.064;19.970;2022-12-18T07:19:36;16.50;23.60
21085;DHT22;34247;50.064;19.970;2022-12-18T07:20:39;16.60;23.50
21085;DHT22;34247;50.064;19.970;2022-12-18T07:21:43;16.50;23.50
21085;DHT22;34247;50.064;19.970;2022-12-18T07:22:47;16.50;23.60
21085;DHT22;34247;50.064;19.970;2022-12-18T07:23:58;16.50;23.60
21085;DHT22;34247;50.064;19.970;2022-12-18T07:25:01;16.50;23.70
21085;DHT22;34247;50.064;19.970;2022-12-18T07:26:11;16.50;23.80